sensor_id;sensor_type;location;lat;lon;timestamp;temperature;humidity
46890;DHT22;32625;51.080;16.970;2023-07-28T00:00:18;16.30;99.90
46890;DHT22;32625;51.080;16.970;2023-07-28T00:02:45;16.30;99.90
46890;DHT22;32625;51.080;16.970;2023-07-28T00:05:13;16.30;99.90
46890;DHT22;32625;51.080;16.970;2023-07-28T00:07:40;16.30;99.90
46890;DHT22;32625;51.080;16.970;2023-07-28T00:10:07;16.30;99.90
46890;DHT22;32625;51.080;16.970;2023-07-28T00:12:34;16.30;99.90
46890;DHT22;32625;51.080;16.970;2023-07-28T00:15:02;16.30;99.90
46890;DHT22;32625;51.080;16.970;2023-07-28T00:17:29;16.30;99.90
46890;DHT22;32625;51.080;16.970;2023-07-28T00:19:56;16.30;99.90
46890;DHT22;32625;51.080;16.970;2023-07-28T00:22:23;16.30;99.90
46890;DHT22;32625;51.080;16.970;2023-07-28T00:24:50;16.30;99.90
46890;DHT22;32625;51.080;16.970;2023-07-28T00:27:18;16.30;99.90
46890;DHT22;32625;51.080;16.970;2023-07-28T00:29:45;16.30;99.90
46890;DHT22;32625;51.080;16.970;2023-07-28T00:32:12;16.30;99.90
46890;DHT22;32625;51.080;16.970;2023-07-28T00:34:39;16.30;99.90
46890;DHT22;32625;51.080;16.970;2023-07-28T00:37:07;16.30;99.90
46890;DHT22;32625;51.080;16.970;2023-07-28T00:39:34;16.30;99.90
46890;DHT22;32625;51.080;16.970;2023-07-28T00:42:01;16.40;99.90
46890;DHT22;32625;51.080;16.970;2023-07-28T00:44:29;16.40;99.90
46890;DHT22;32625;51.080;16.970;2023-07-28T00:46:56;16.40;99.90
46890;DHT22;32625;51.080;16.970;2023-07-28T00:49:23;16.40;99.90
46890;DHT22;32625;51.080;16.970;2023-07-28T00:51:51;16.40;99.90
46890;DHT22;32625;51.080;16.970;2023-07-28T00:54:19;16.40;99.90
46890;DHT22;32625;51.080;16.970;2023-07-28T00:56:46;16.40;99.90
46890;DHT22;32625;51.080;16.970;2023-07-28T00:59:13;16.40;99.90
46890;DHT22;32625;51.080;16.970;2023-07-28T01:01:41;16.40;99.90
46890;DHT22;32625;51.080;16.970;2023-07-28T01:04:08;16.50;99.90
46890;DHT22;32625;51.080;16.970;2023-07-28T01:07:01;16.40;99.90
46890;DHT22;32625;51.080;16.970;2023-07-28T01:09:40;16.40;99.90
46890;DHT22;32625;51.080;16.970;2023-07-28T01:12:08;16.40;99.90
46890;DHT22;32625;51.080;16.970;2023-07-28T01:14:38;16.50;99.90
46890;DHT22;32625;51.080;16.970;2023-07-28T01:17:06;16.40;99.90
46890;DHT22;32625;51.080;16.970;2023-07-28T01:19:33;16.50;99.90
46890;DHT22;32625;51.080;16.970;2023-07-28T01:25:00;16.50;99.90
46890;DHT22;32625;51.080;16.970;2023-07-28T01:27:30;16.50;99.90
46890;DHT22;32625;51.080;16.970;2023-07-28T01:29:59;16.50;99.90
46890;DHT22;32625;51.080;16.970;2023-07-28T01:32:26;16.50;99.90
46890;DHT22;32625;51.080;16.970;2023-07-28T01:34:53;16.60;99.90
46890;DHT22;32625;51.080;16.970;2023-07-28T01:37:20;16.50;99.90
46890;DHT22;32625;51.080;16.970;2023-07-28T01:39:48;16.50;99.90
46890;DHT22;32625;51.080;16.970;2023-07-28T01:42:15;16.50;99.90
46890;DHT22;32625;51.080;16.970;2023-07-28T01:44:42;16.60;99.90
46890;DHT22;32625;51.080;16.970;2023-07-28T01:47:09;16.60;99.90
46890;DHT22;32625;51.080;16.970;2023-07-28T01:49:36;16.60;99.90
46890;DHT22;32625;51.080;16.970;2023-07-28T01:52:04;16.60;99.90
46890;DHT22;32625;51.080;16.970;2023-07-28T01:54:31;16.60;99.90
46890;DHT22;32625;51.080;16.970;2023-07-28T01:56:58;16.50;99.90
46890;DHT22;32625;51.080;16.970;2023-07-28T01:59:25;16.50;99.90
46890;DHT22;32625;51.080;16.970;2023-07-28T02:01:52;16.50;99.90
46890;DHT22;32625;51.080;16.970;2023-07-28T02:04:20;16.60;99.90
46890;DHT22;32625;51.080;16.970;2023-07-28T02:06:47;16.60;99.90
46890;DHT22;32625;51.080;16.970;2023-07-28T02:09:14;16.60;99.90
46890;DHT22;32625;51.080;16.970;2023-07-28T02:11:41;16.60;99.90
46890;DHT22;32625;51.080;16.970;2023-07-28T02:14:08;16.60;99.90
46890;DHT22;32625;51.080;16.970;2023-07-28T02:16:35;16.50;99.90
46890;DHT22;32625;51.080;16.970;2023-07-28T02:19:03;16.60;99.90
46890;DHT22;32625;51.080;16.970;2023-07-28T02:21:30;16.60;99.90
46890;DHT22;32625;51.080;16.970;2023-07-28T02:23:58;16.60;99.90
46890;DHT22;32625;51.080;16.970;2023-07-28T02:26:25;16.60;99.90
46890;DHT22;32625;51.080;16.970;2023-07-28T02:28:52;16.60;99.90
46890;DHT22;32625;51.080;16.970;2023-07-28T02:31:19;16.60;99.90
46890;DHT22;32625;51.080;16.970;2023-07-28T02:33:47;16.70;99.90
46890;DHT22;32625;51.080;16.970;2023-07-28T02:36:14;16.70;99.90
46890;DHT22;32625;51.080;16.970;2023-07-28T02:38:41;16.70;99.90
46890;DHT22;32625;51.080;16.970;2023-07-28T02:41:08;16.70;99.90
46890;DHT22;32625;51.080;16.970;2023-07-28T02:43:35;16.70;99.90
46890;DHT22;32625;51.080;16.970;2023-07-28T02:46:03;16.70;99.90
46890;DHT22;32625;51.080;16.970;2023-07-28T02:48:30;16.60;99.90
46890;DHT22;32625;51.080;16.970;2023-07-28T02:50:57;16.70;99.90
46890;DHT22;32625;51.080;16.970;2023-07-28T02:53:25;16.70;99.90
46890;DHT22;32625;51.080;16.970;2023-07-28T02:55:52;16.60;99.90
46890;DHT22;32625;51.080;16.970;2023-07-28T02:58:19;16.60;99.90
46890;DHT22;32625;51.080;16.970;2023-07-28T03:00:47;16.60;99.90
46890;DHT22;32625;51.080;16.970;2023-07-28T03:03:19;16.60;99.90
46890;DHT22;32625;51.080;16.970;2023-07-28T03:05:51;16.70;99.90
46890;DHT22;32625;51.080;16.970;2023-07-28T03:08:24;16.70;99.90
46890;DHT22;32625;51.080;16.970;2023-07-28T03:11:01;16.70;99.90
46890;DHT22;32625;51.080;16.970;2023-07-28T03:13:31;16.70;99.90
46890;DHT22;32625;51.080;16.970;2023-07-28T03:15:58;16.70;99.90
46890;DHT22;32625;51.080;16.970;2023-07-28T03:18:25;16.70;99.90
46890;DHT22;32625;51.080;16.970;2023-07-28T03:20:54;16.70;99.90
46890;DHT22;32625;51.080;16.970;2023-07-28T03:23:21;16.70;99.90
46890;DHT22;32625;51.080;16.970;2023-07-28T03:25:49;16.70;99.90
46890;DHT22;32625;51.080;16.970;2023-07-28T03:28:16;16.70;99.90
46890;DHT22;32625;51.080;16.970;2023-07-28T03:30:43;16.70;99.90
46890;DHT22;32625;51.080;16.970;2023-07-28T03:33:10;16.60;99.90
46890;DHT22;32625;51.080;16.970;2023-07-28T03:35:38;16.70;99.90
46890;DHT22;32625;51.080;16.970;2023-07-28T03:38:08;16.70;99.90
46890;DHT22;32625;51.080;16.970;2023-07-28T03:40:36;16.70;99.90
46890;DHT22;32625;51.080;16.970;2023-07-28T03:43:03;16.70;99.90
46890;DHT22;32625;51.080;16.970;2023-07-28T03:45:31;16.70;99.90
46890;DHT22;32625;51.080;16.970;2023-07-28T03:47:58;16.70;99.90
46890;DHT22;32625;51.080;16.970;2023-07-28T03:50:25;16.70;99.90
46890;DHT22;32625;51.080;16.970;2023-07-28T03:52:53;16.70;99.90
46890;DHT22;32625;51.080;16.970;2023-07-28T03:55:21;16.70;99.90
46890;DHT22;32625;51.080;16.970;2023-07-28T03:57:48;16.80;99.90
46890;DHT22;32625;51.080;16.970;2023-07-28T04:00:15;16.80;99.90
46890;DHT22;32625;51.080;16.970;2023-07-28T04:02:42;16.80;99.90
46890;DHT22;32625;51.080;16.970;2023-07-28T04:05:09;16.80;99.90
46890;DHT22;32625;51.080;16.970;2023-07-28T04:07:37;16.80;99.90
46890;DHT22;32625;51.080;16.970;2023-07-28T04:10:04;16.80;99.90
46890;DHT22;32625;51.080;16.970;2023-07-28T04:12:32;16.80;99.90
46890;DHT22;32625;51.080;16.970;2023-07-28T04:14:59;16.90;99.90
46890;DHT22;32625;51.080;16.970;2023-07-28T04:17:27;16.90;99.90
46890;DHT22;32625;51.080;16.970;2023-07-28T04:19:54;16.90;99.90
46890;DHT22;32625;51.080;16.970;2023-07-28T04:22:22;16.90;99.90
46890;DHT22;32625;51.080;16.970;2023-07-28T04:24:52;16.90;99.90
46890;DHT22;32625;51.080;16.970;2023-07-28T04:27:21;16.90;99.90
46890;DHT22;32625;51.080;16.970;2023-07-28T04:29:50;16.90;99.90
46890;DHT22;32625;51.080;16.970;2023-07-28T04:32:20;16.90;99.90
46890;DHT22;32625;51.080;16.970;2023-07-28T04:34:51;17.00;99.90
46890;DHT22;32625;51.080;16.970;2023-07-28T04:37:38;17.00;99.90
46890;DHT22;32625;51.080;16.970;2023-07-28T04:40:06;17.00;99.90
46890;DHT22;32625;51.080;16.970;2023-07-28T04:42:37;17.00;99.90
46890;DHT22;32625;51.080;16.970;2023-07-28T04:45:06;17.00;99.90
46890;DHT22;32625;51.080;16.970;2023-07-28T04:47:33;17.00;99.90
46890;DHT22;32625;51.080;16.970;2023-07-28T04:50:01;17.00;99.90
46890;DHT22;32625;51.080;16.970;2023-07-28T04:52:51;17.00;99.90
46890;DHT22;32625;51.080;16.970;2023-07-28T04:55:38;17.10;99.90
46890;DHT22;32625;51.080;16.970;2023-07-28T04:58:05;17.10;99.90
46890;DHT22;32625;51.080;16.970;2023-07-28T05:00:44;17.10;99.90
46890;DHT22;32625;51.080;16.970;2023-07-28T05:03:11;17.10;99.90
46890;DHT22;32625;51.080;16.970;2023-07-28T05:05:46;17.10;99.90
46890;DHT22;32625;51.080;16.970;2023-07-28T05:08:13;17.10;99.90
46890;DHT22;32625;51.080;16.970;2023-07-28T05:10:42;17.10;99.90
46890;DHT22;32625;51.080;16.970;2023-07-28T05:13:13;17.10;99.90
46890;DHT22;32625;51.080;16.970;2023-07-28T05:15:49;17.10;99.90
46890;DHT22;32625;51.080;16.970;2023-07-28T05:18:29;17.10;99.90
46890;DHT22;32625;51.080;16.970;2023-07-28T05:21:22;17.10;99.90
46890;DHT22;32625;51.080;16.970;2023-07-28T05:23:50;17.10;99.90
46890;DHT22;32625;51.080;16.970;2023-07-28T05:26:18;17.10;99.90
46890;DHT22;32625;51.080;16.970;2023-07-28T05:28:45;17.10;99.90
46890;DHT22;32625;51.080;16.970;2023-07-28T05:31:12;17.10;99.90
46890;DHT22;32625;51.080;16.970;2023-07-28T05:33:42;17.10;99.90
46890;DHT22;32625;51.080;16.970;2023-07-28T05:36:10;17.20;99.90
46890;DHT22;32625;51.080;16.970;2023-07-28T05:38:37;17.20;99.90
46890;DHT22;32625;51.080;16.970;2023-07-28T05:41:04;17.20;99.90
46890;DHT22;32625;51.080;16.970;2023-07-28T05:43:31;17.20;99.90
46890;DHT22;32625;51.080;16.970;2023-07-28T05:46:00;17.20;99.90
46890;DHT22;32625;51.080;16.970;2023-07-28T05:48:32;17.20;99.90
46890;DHT22;32625;51.080;16.970;2023-07-28T05:50:59;17.30;99.90
46890;DHT22;32625;51.080;16.970;2023-07-28T05:53:26;17.30;99.90
46890;DHT22;32625;51.080;16.970;2023-07-28T05:55:59;17.30;99.90
46890;DHT22;32625;51.080;16.970;2023-07-28T05:58:29;17.30;99.90
46890;DHT22;32625;51.080;16.970;2023-07-28T06:00:56;17.30;99.90
46890;DHT22;32625;51.080;16.970;2023-07-28T06:03:43;17.40;99.90
46890;DHT22;32625;51.080;16.970;2023-07-28T06:06:18;17.40;99.90
46890;DHT22;32625;51.080;16.970;2023-07-28T06:08:45;17.50;99.90
46890;DHT22;32625;51.080;16.970;2023-07-28T06:11:12;17.50;99.90
46890;DHT22;32625;51.080;16.970;2023-07-28T06:13:40;17.60;99.90
46890;DHT22;32625;51.080;16.970;2023-07-28T06:16:07;17.60;99.90
46890;DHT22;32625;51.080;16.970;2023-07-28T06:18:34;17.60;99.90
46890;DHT22;32625;51.080;16.970;2023-07-28T06:21:14;17.70;99.90
46890;DHT22;32625;51.080;16.970;2023-07-28T06:23:42;17.70;99.90
46890;DHT22;32625;51.080;16.970;2023-07-28T06:26:09;17.70;99.90
46890;DHT22;32625;51.080;16.970;2023-07-28T06:28:39;17.70;99.90
46890;DHT22;32625;51.080;16.970;2023-07-28T06:31:06;17.70;99.90
46890;DHT22;32625;51.080;16.970;2023-07-28T06:33:33;17.70;99.90
46890;DHT22;32625;51.080;16.970;2023-07-28T06:36:01;17.70;99.90
46890;DHT22;32625;51.080;16.970;2023-07-28T06:38:28;17.70;99.90
46890;DHT22;32625;51.080;16.970;2023-07-28T06:40:55;17.70;99.90
46890;DHT22;32625;51.080;16.970;2023-07-28T06:43:23;17.70;99.90
46890;DHT22;32625;51.080;16.970;2023-07-28T06:45:51;17.80;99.90
46890;DHT22;32625;51.080;16.970;2023-07-28T06:48:19;17.80;99.90
46890;DHT22;32625;51.080;16.970;2023-07-28T06:50:46;17.80;99.90
46890;DHT22;32625;51.080;16.970;2023-07-28T06:53:13;17.90;99.90
46890;DHT22;32625;51.080;16.970;2023-07-28T06:55:42;17.90;99.90
46890;DHT22;32625;51.080;16.970;2023-07-28T06:58:10;17.90;99.90
46890;DHT22;32625;51.080;16.970;2023-07-28T07:00:37;17.90;99.90
46890;DHT22;32625;51.080;16.970;2023-07-28T07:03:05;17.90;99.90
46890;DHT22;32625;51.080;16.970;2023-07-28T07:05:33;17.90;99.90
46890;DHT22;32625;51.080;16.970;2023-07-28T07:08:00;18.00;99.90
46890;DHT22;32625;51.080;16.970;2023-07-28T07:10:28;18.00;99.90
46890;DHT22;32625;51.080;16.970;2023-07-28T07:12:56;18.00;99.90
46890;DHT22;32625;51.080;16.970;2023-07-28T07:15:23;18.10;99.90
46890;DHT22;32625;51.080;16.970;2023-07-28T07:17:50;18.10;99.90
46890;DHT22;32625;51.080;16.970;2023-07-28T07:20:18;18.20;99.90
46890;DHT22;32625;51.080;16.970;2023-07-28T07:22:45;18.30;99.90
46890;DHT22;32625;51.080;16.970;2023-07-28T07:25:12;18.30;99.90
46890;DHT22;32625;51.080;16.970;2023-07-28T07:27:39;18.40;99.90
46890;DHT22;32625;51.080;16.970;2023-07-28T07:30:07;18.40;99.90
46890;DHT22;32625;51.080;16.970;2023-07-28T07:32:35;18.40;99.90
46890;DHT22;32625;51.080;16.970;2023-07-28T07:35:02;18.50;99.90
46890;DHT22;32625;51.080;16.970;2023-07-28T07:37:30;18.50;99.90
46890;DHT22;32625;51.080;16.970;2023-07-28T07:39:59;18.60;99.90
46890;DHT22;32625;51.080;16.970;2023-07-28T07:42:28;18.50;99.90
46890;DHT22;32625;51.080;16.970;2023-07-28T07:45:08;18.60;99.90
46890;DHT22;32625;51.080;16.970;2023-07-28T07:47:35;18.60;99.90
46890;DHT22;32625;51.080;16.970;2023-07-28T07:50:03;18.70;99.90
46890;DHT22;32625;51.080;16.970;2023-07-28T07:52:31;18.80;99.90
46890;DHT22;32625;51.080;16.970;2023-07-28T07:54:59;18.80;99.90
46890;DHT22;32625;51.080;16.970;2023-07-28T07:57:26;18.80;99.90
46890;DHT22;32625;51.080;16.970;2023-07-28T07:59:53;18.70;99.90
46890;DHT22;32625;51.080;16.970;2023-07-28T08:02:20;18.70;99.90
46890;DHT22;32625;51.080;16.970;2023-07-28T08:04:48;18.70;99.90
46890;DHT22;32625;51.080;16.970;2023-07-28T08:07:15;18.70;99.90
46890;DHT22;32625;51.080;16.970;2023-07-28T08:09:43;18.70;99.90
46890;DHT22;32625;51.080;16.970;2023-07-28T08:12:11;18.70;99.90
46890;DHT22;32625;51.080;16.970;2023-07-28T08:14:38;18.80;99.90
46890;DHT22;32625;51.080;16.970;2023-07-28T08:17:05;18.70;99.90
46890;DHT22;32625;51.080;16.970;2023-07-28T08:19:32;18.70;99.90
46890;DHT22;32625;51.080;16.970;2023-07-28T08:22:00;18.80;99.90
46890;DHT22;32625;51.080;16.970;2023-07-28T08:24:27;18.80;99.90
46890;DHT22;32625;51.080;16.970;2023-07-28T08:26:56;18.80;99.90
46890;DHT22;32625;51.080;16.970;2023-07-28T08:29:23;18.80;99.90
46890;DHT22;32625;51.080;16.970;2023-07-28T08:31:51;18.80;99.90
46890;DHT22;32625;51.080;16.970;2023-07-28T08:34:18;18.90;99.90
46890;DHT22;32625;51.080;16.970;2023-07-28T08:36:45;19.00;99.90
46890;DHT22;32625;51.080;16.970;2023-07-28T08:39:12;18.90;99.90
46890;DHT22;32625;51.080;16.970;2023-07-28T08:41:41;18.90;99.90
46890;DHT22;32625;51.080;16.970;2023-07-28T08:44:09;18.90;99.90
46890;DHT22;32625;51.080;16.970;2023-07-28T08:46:36;19.00;99.90
46890;DHT22;32625;51.080;16.970;2023-07-28T08:49:03;19.00;99.90
46890;DHT22;32625;51.080;16.970;2023-07-28T08:51:31;19.00;99.90
46890;DHT22;32625;51.080;16.970;2023-07-28T08:53:58;18.90;99.90
46890;DHT22;32625;51.080;16.970;2023-07-28T08:56:25;18.90;99.90
46890;DHT22;32625;51.080;16.970;2023-07-28T08:58:59;18.90;99.90
46890;DHT22;32625;51.080;16.970;2023-07-28T09:01:29;18.90;99.90
46890;DHT22;32625;51.080;16.970;2023-07-28T09:03:57;18.90;99.90
46890;DHT22;32625;51.080;16.970;2023-07-28T09:06:30;19.00;99.90
46890;DHT22;32625;51.080;16.970;2023-07-28T09:08:58;19.10;99.90
46890;DHT22;32625;51.080;16.970;2023-07-28T09:11:25;19.10;99.90
46890;DHT22;32625;51.080;16.970;2023-07-28T09:13:54;19.30;99.90
46890;DHT22;32625;51.080;16.970;2023-07-28T09:16:22;19.40;99.90
46890;DHT22;32625;51.080;16.970;2023-07-28T09:19:04;19.40;99.90
46890;DHT22;32625;51.080;16.970;2023-07-28T09:21:32;19.40;99.90
46890;DHT22;32625;51.080;16.970;2023-07-28T09:24:01;19.50;99.90
46890;DHT22;32625;51.080;16.970;2023-07-28T09:26:44;19.60;99.90
46890;DHT22;32625;51.080;16.970;2023-07-28T09:29:17;19.70;99.90
46890;DHT22;32625;51.080;16.970;2023-07-28T09:31:48;19.80;99.90
46890;DHT22;32625;51.080;16.970;2023-07-28T09:34:26;19.80;99.90
46890;DHT22;32625;51.080;16.970;2023-07-28T09:36:55;20.00;99.90
46890;DHT22;32625;51.080;16.970;2023-07-28T09:39:23;20.20;99.90
46890;DHT22;32625;51.080;16.970;2023-07-28T09:41:50;20.40;99.90
46890;DHT22;32625;51.080;16.970;2023-07-28T09:44:17;20.40;99.90
46890;DHT22;32625;51.080;16.970;2023-07-28T09:46:55;20.40;99.90
46890;DHT22;32625;51.080;16.970;2023-07-28T09:49:35;20.30;99.90
46890;DHT22;32625;51.080;16.970;2023-07-28T09:52:08;20.30;99.90
46890;DHT22;32625;51.080;16.970;2023-07-28T09:54:40;20.50;99.90
46890;DHT22;32625;51.080;16.970;2023-07-28T09:57:13;20.70;99.90
46890;DHT22;32625;51.080;16.970;2023-07-28T09:59:46;20.90;99.90
46890;DHT22;32625;51.080;16.970;2023-07-28T10:02:14;20.90;99.90
46890;DHT22;32625;51.080;16.970;2023-07-28T10:04:42;20.90;99.90
46890;DHT22;32625;51.080;16.970;2023-07-28T10:07:09;20.80;99.90
46890;DHT22;32625;51.080;16.970;2023-07-28T10:09:37;20.80;99.90
46890;DHT22;32625;51.080;16.970;2023-07-28T10:12:05;20.80;99.90
46890;DHT22;32625;51.080;16.970;2023-07-28T10:14:37;20.70;99.90
46890;DHT22;32625;51.080;16.970;2023-07-28T10:17:05;20.80;99.90
46890;DHT22;32625;51.080;16.970;2023-07-28T10:19:36;20.80;99.90
46890;DHT22;32625;51.080;16.970;2023-07-28T10:22:09;20.90;99.90
46890;DHT22;32625;51.080;16.970;2023-07-28T10:24:56;20.90;99.90
46890;DHT22;32625;51.080;16.970;2023-07-28T10:30:13;21.20;99.90
46890;DHT22;32625;51.080;16.970;2023-07-28T10:32:45;21.40;99.90
46890;DHT22;32625;51.080;16.970;2023-07-28T10:37:43;21.50;99.90
46890;DHT22;32625;51.080;16.970;2023-07-28T10:40:32;21.50;99.90
46890;DHT22;32625;51.080;16.970;2023-07-28T10:43:03;21.60;99.90
46890;DHT22;32625;51.080;16.970;2023-07-28T10:45:32;21.80;99.90
46890;DHT22;32625;51.080;16.970;2023-07-28T10:48:00;21.80;99.90
46890;DHT22;32625;51.080;16.970;2023-07-28T10:50:29;21.90;99.90
46890;DHT22;32625;51.080;16.970;2023-07-28T10:52:57;22.00;99.90
46890;DHT22;32625;51.080;16.970;2023-07-28T10:55:26;22.10;99.90
46890;DHT22;32625;51.080;16.970;2023-07-28T10:57:54;22.10;99.90
46890;DHT22;32625;51.080;16.970;2023-07-28T11:00:23;22.20;99.90
46890;DHT22;32625;51.080;16.970;2023-07-28T11:02:52;22.40;99.90
46890;DHT22;32625;51.080;16.970;2023-07-28T11:05:30;22.60;99.90
46890;DHT22;32625;51.080;16.970;2023-07-28T11:07:59;22.60;99.90
46890;DHT22;32625;51.080;16.970;2023-07-28T11:10:31;22.50;99.90
46890;DHT22;32625;51.080;16.970;2023-07-28T11:13:01;22.50;99.90
46890;DHT22;32625;51.080;16.970;2023-07-28T11:15:46;22.40;99.90
46890;DHT22;32625;51.080;16.970;2023-07-28T11:18:15;22.50;99.90
46890;DHT22;32625;51.080;16.970;2023-07-28T11:20:43;22.40;99.90
46890;DHT22;32625;51.080;16.970;2023-07-28T11:23:14;22.60;99.90
46890;DHT22;32625;51.080;16.970;2023-07-28T11:25:42;22.60;99.90
46890;DHT22;32625;51.080;16.970;2023-07-28T11:28:11;22.70;99.90
46890;DHT22;32625;51.080;16.970;2023-07-28T11:30:38;22.80;99.90
46890;DHT22;32625;51.080;16.970;2023-07-28T11:33:09;22.90;99.90
46890;DHT22;32625;51.080;16.970;2023-07-28T11:35:38;23.00;99.90
46890;DHT22;32625;51.080;16.970;2023-07-28T11:38:07;23.10;99.90
46890;DHT22;32625;51.080;16.970;2023-07-28T11:40:35;23.20;99.90
46890;DHT22;32625;51.080;16.970;2023-07-28T11:43:03;23.40;99.90
46890;DHT22;32625;51.080;16.970;2023-07-28T11:45:31;23.50;99.90
46890;DHT22;32625;51.080;16.970;2023-07-28T11:50:37;23.60;99.90
46890;DHT22;32625;51.080;16.970;2023-07-28T11:53:06;23.50;99.90
46890;DHT22;32625;51.080;16.970;2023-07-28T11:55:35;23.50;99.80
46890;DHT22;32625;51.080;16.970;2023-07-28T11:58:04;23.60;99.60
46890;DHT22;32625;51.080;16.970;2023-07-28T12:00:34;23.70;99.30
46890;DHT22;32625;51.080;16.970;2023-07-28T12:03:09;23.90;98.50
46890;DHT22;32625;51.080;16.970;2023-07-28T12:05:42;24.30;98.10
46890;DHT22;32625;51.080;16.970;2023-07-28T12:08:40;24.60;94.10
46890;DHT22;32625;51.080;16.970;2023-07-28T12:11:13;24.60;93.60
46890;DHT22;32625;51.080;16.970;2023-07-28T12:13:52;24.70;93.50
46890;DHT22;32625;51.080;16.970;2023-07-28T12:16:39;24.70;93.90
46890;DHT22;32625;51.080;16.970;2023-07-28T12:19:12;24.80;92.40
46890;DHT22;32625;51.080;16.970;2023-07-28T12:21:39;24.80;92.30
46890;DHT22;32625;51.080;16.970;2023-07-28T12:24:07;24.70;91.90
46890;DHT22;32625;51.080;16.970;2023-07-28T12:26:34;24.60;90.80
46890;DHT22;32625;51.080;16.970;2023-07-28T12:29:05;24.30;91.00
46890;DHT22;32625;51.080;16.970;2023-07-28T12:31:36;24.20;91.00
46890;DHT22;32625;51.080;16.970;2023-07-28T12:34:06;24.20;91.70
46890;DHT22;32625;51.080;16.970;2023-07-28T12:36:33;24.20;92.40
46890;DHT22;32625;51.080;16.970;2023-07-28T12:39:03;24.40;93.60
46890;DHT22;32625;51.080;16.970;2023-07-28T12:41:36;24.80;92.40
46890;DHT22;32625;51.080;16.970;2023-07-28T12:44:06;24.90;91.80
46890;DHT22;32625;51.080;16.970;2023-07-28T12:46:37;25.00;91.10
46890;DHT22;32625;51.080;16.970;2023-07-28T12:49:05;25.00;90.60
46890;DHT22;32625;51.080;16.970;2023-07-28T12:51:34;25.00;90.90
46890;DHT22;32625;51.080;16.970;2023-07-28T12:54:01;24.90;91.70
46890;DHT22;32625;51.080;16.970;2023-07-28T12:56:28;25.00;90.30
46890;DHT22;32625;51.080;16.970;2023-07-28T12:58:58;25.00;90.20
46890;DHT22;32625;51.080;16.970;2023-07-28T13:01:29;25.20;90.10
46890;DHT22;32625;51.080;16.970;2023-07-28T13:03:56;25.20;91.10
46890;DHT22;32625;51.080;16.970;2023-07-28T13:06:23;25.10;91.20
46890;DHT22;32625;51.080;16.970;2023-07-28T13:08:50;25.10;90.90
46890;DHT22;32625;51.080;16.970;2023-07-28T13:11:20;25.20;90.10
46890;DHT22;32625;51.080;16.970;2023-07-28T13:13:47;25.30;90.10
46890;DHT22;32625;51.080;16.970;2023-07-28T13:16:15;25.40;88.10
46890;DHT22;32625;51.080;16.970;2023-07-28T13:18:43;25.60;88.30
46890;DHT22;32625;51.080;16.970;2023-07-28T13:21:10;25.50;88.80
46890;DHT22;32625;51.080;16.970;2023-07-28T13:23:38;25.40;89.80
46890;DHT22;32625;51.080;16.970;2023-07-28T13:26:06;25.50;89.10
46890;DHT22;32625;51.080;16.970;2023-07-28T13:28:33;25.50;90.10
46890;DHT22;32625;51.080;16.970;2023-07-28T13:31:02;25.70;90.10
46890;DHT22;32625;51.080;16.970;2023-07-28T13:33:30;25.60;88.60
46890;DHT22;32625;51.080;16.970;2023-07-28T13:35:57;25.60;86.70
46890;DHT22;32625;51.080;16.970;2023-07-28T13:38:25;25.80;86.50
46890;DHT22;32625;51.080;16.970;2023-07-28T13:40:52;25.90;84.80
46890;DHT22;32625;51.080;16.970;2023-07-28T13:43:19;25.90;85.80
46890;DHT22;32625;51.080;16.970;2023-07-28T13:45:46;26.00;86.10
46890;DHT22;32625;51.080;16.970;2023-07-28T13:48:14;26.00;86.20
46890;DHT22;32625;51.080;16.970;2023-07-28T13:50:44;25.90;86.40
46890;DHT22;32625;51.080;16.970;2023-07-28T13:53:22;25.70;86.00
46890;DHT22;32625;51.080;16.970;2023-07-28T13:55:52;25.60;84.70
46890;DHT22;32625;51.080;16.970;2023-07-28T13:58:22;25.90;82.90
46890;DHT22;32625;51.080;16.970;2023-07-28T14:00:50;26.10;83.00
46890;DHT22;32625;51.080;16.970;2023-07-28T14:03:17;26.20;81.80
46890;DHT22;32625;51.080;16.970;2023-07-28T14:05:44;26.20;78.70
46890;DHT22;32625;51.080;16.970;2023-07-28T14:08:12;26.20;76.00
46890;DHT22;32625;51.080;16.970;2023-07-28T14:10:44;26.10;75.60
46890;DHT22;32625;51.080;16.970;2023-07-28T14:13:11;25.90;76.30
46890;DHT22;32625;51.080;16.970;2023-07-28T14:15:39;26.00;76.60
46890;DHT22;32625;51.080;16.970;2023-07-28T14:18:07;25.90;78.10
46890;DHT22;32625;51.080;16.970;2023-07-28T14:20:35;25.90;77.90
46890;DHT22;32625;51.080;16.970;2023-07-28T14:23:27;26.00;77.00
46890;DHT22;32625;51.080;16.970;2023-07-28T14:25:57;26.10;76.50
46890;DHT22;32625;51.080;16.970;2023-07-28T14:28:24;26.00;76.30
46890;DHT22;32625;51.080;16.970;2023-07-28T14:30:52;26.00;76.40
46890;DHT22;32625;51.080;16.970;2023-07-28T14:33:19;26.00;74.40
46890;DHT22;32625;51.080;16.970;2023-07-28T14:35:48;26.00;75.10
46890;DHT22;32625;51.080;16.970;2023-07-28T14:38:15;26.00;73.60
46890;DHT22;32625;51.080;16.970;2023-07-28T14:40:44;26.00;73.70
46890;DHT22;32625;51.080;16.970;2023-07-28T14:43:16;25.90;75.00
46890;DHT22;32625;51.080;16.970;2023-07-28T14:45:43;26.00;74.30
46890;DHT22;32625;51.080;16.970;2023-07-28T14:48:11;25.80;75.90
46890;DHT22;32625;51.080;16.970;2023-07-28T14:50:40;25.80;76.10
46890;DHT22;32625;51.080;16.970;2023-07-28T14:53:33;25.90;73.70
46890;DHT22;32625;51.080;16.970;2023-07-28T14:56:03;25.90;74.20
46890;DHT22;32625;51.080;16.970;2023-07-28T14:58:31;25.80;74.40
46890;DHT22;32625;51.080;16.970;2023-07-28T15:00:59;25.70;74.50
46890;DHT22;32625;51.080;16.970;2023-07-28T15:03:28;25.80;73.50
46890;DHT22;32625;51.080;16.970;2023-07-28T15:05:58;25.90;73.70
46890;DHT22;32625;51.080;16.970;2023-07-28T15:08:26;25.80;74.30
46890;DHT22;32625;51.080;16.970;2023-07-28T15:10:53;25.70;74.70
46890;DHT22;32625;51.080;16.970;2023-07-28T15:13:21;25.70;74.50
46890;DHT22;32625;51.080;16.970;2023-07-28T15:15:50;25.70;75.10
46890;DHT22;32625;51.080;16.970;2023-07-28T15:18:17;25.70;74.50
46890;DHT22;32625;51.080;16.970;2023-07-28T15:20:44;25.70;74.40
46890;DHT22;32625;51.080;16.970;2023-07-28T15:23:12;25.60;75.30
46890;DHT22;32625;51.080;16.970;2023-07-28T15:25:39;25.50;75.30
46890;DHT22;32625;51.080;16.970;2023-07-28T15:28:13;25.40;76.50
46890;DHT22;32625;51.080;16.970;2023-07-28T15:30:41;25.20;77.50
46890;DHT22;32625;51.080;16.970;2023-07-28T15:33:13;25.00;78.10
46890;DHT22;32625;51.080;16.970;2023-07-28T15:35:40;25.00;78.50
46890;DHT22;32625;51.080;16.970;2023-07-28T15:38:08;25.00;79.10